Time;durP1;ratioP1;P1;durP2;ratioP2;P2;SDS_P1;SDS_P2;PMS_P1;PMS_P2;Temp;Humidity;BMP_temperature;BMP_pressure;BME280_temperature;BME280_humidity;BME280_pressure;Samples;Min_cycle;Max_cycle;Signal;HPM_P1;HPM_P2
2023/01/13 00:01:07;;;;;;;3.80;1.57;;;9.40;34.10;;;;;;5114160;27;20460;-78
2023/01/13 00:03:35;;;;;;;1.73;1.20;;;9.50;1.00;;;;;;5109004;27;20490;-76
2023/01/13 00:06:04;;;;;;;1.20;1.10;;;9.40;1.00;;;;;;5119426;27;20452;-76
2023/01/13 00:08:32;;;;;;;1.90;1.20;;;9.50;99.90;;;;;;5106497;27;20487;-77
2023/01/13 00:11:01;;;;;;;1.43;1.33;;;9.50;1.00;;;;;;5102215;27;20449;-76
2023/01/13 00:13:30;;;;;;;2.37;1.37;;;9.50;1.00;;;;;;5094990;27;20488;-78
2023/01/13 00:16:02;;;;;;;3.10;1.20;;;9.50;99.90;;;;;;5111026;27;20498;-77
2023/01/13 00:18:30;;;;;;;1.53;1.10;;;9.60;99.90;;;;;;5108870;27;21176;-76
2023/01/13 00:20:59;;;;;;;1.20;1.20;;;9.50;1.00;;;;;;5093908;27;20451;-77
2023/01/13 00:23:29;;;;;;;1.90;1.43;;;9.50;99.90;;;;;;5111504;27;20469;-77
2023/01/13 00:25:57;;;;;;;1.70;1.60;;;9.40;1.00;;;;;;5080289;27;20445;-76
2023/01/13 00:28:26;;;;;;;1.57;1.13;;;9.40;99.90;;;;;;5086041;28;20488;-77
2023/01/13 00:30:55;;;;;;;1.30;1.20;;;9.50;99.90;;;;;;5100640;27;20452;-78
2023/01/13 00:33:25;;;;;;;1.40;1.20;;;9.50;1.00;;;;;;5105524;27;20797;-78
2023/01/13 00:35:57;;;;;;;2.00;1.20;;;9.50;99.90;;;;;;5085216;27;20506;-74
2023/01/13 00:38:25;;;;;;;1.50;1.30;;;9.50;99.90;;;;;;5076907;27;20568;-77
2023/01/13 00:40:57;;;;;;;1.43;1.03;;;9.60;1.00;;;;;;5103984;27;20482;-77
2023/01/13 00:43:25;;;;;;;0.90;0.90;;;9.50;99.90;;;;;;5099371;27;20472;-77
2023/01/13 00:45:54;;;;;;;1.30;1.20;;;9.50;99.90;;;;;;5102963;27;20450;-78
2023/01/13 00:48:25;;;;;;;1.20;1.10;;;9.50;99.90;;;;;;5109493;27;20561;-75
2023/01/13 00:50:57;;;;;;;1.83;1.10;;;9.50;1.00;;;;;;5111597;27;20449;-75
2023/01/13 00:53:26;;;;;;;2.50;1.20;;;9.60;1.00;;;;;;5101068;27;20457;-75
2023/01/13 00:56:00;;;;;;;3.73;1.10;;;9.60;63.40;;;;;;5089758;27;20449;-75
2023/01/13 00:58:31;;;;;;;2.73;1.10;;;9.60;14.00;;;;;;5105511;27;20811;-75
2023/01/13 01:01:01;;;;;;;1.73;1.10;;;9.60;1.00;;;;;;5101870;27;20552;-75
2023/01/13 01:03:31;;;;;;;1.70;1.10;;;9.60;1.00;;;;;;5104437;27;20471;-76
2023/01/13 01:06:06;;;;;;;1.43;1.33;;;9.60;99.90;;;;;;5114762;27;20885;-75
2023/01/13 01:08:35;;;;;;;2.17;1.10;;;9.60;1.00;;;;;;5110314;27;20507;-75
2023/01/13 01:11:04;;;;;;;1.00;1.00;;;9.60;1.00;;;;;;5094085;27;20500;-76
2023/01/13 01:13:32;;;;;;;1.10;1.00;;;9.60;1.00;;;;;;5111207;27;20930;-76
2023/01/13 01:16:05;;;;;;;1.27;1.00;;;9.60;1.00;;;;;;5096037;27;20543;-77
2023/01/13 01:18:36;;;;;;;1.10;1.10;;;9.70;88.00;;;;;;5115240;27;20460;-75
2023/01/13 01:21:05;;;;;;;4.70;1.10;;;9.70;1.00;;;;;;5111259;27;20448;-76
2023/01/13 01:23:34;;;;;;;1.00;1.00;;;9.70;1.00;;;;;;5109164;27;20510;-76
2023/01/13 01:26:04;;;;;;;1.00;0.97;;;9.70;99.90;;;;;;5099506;27;20497;-74
2023/01/13 01:28:32;;;;;;;1.20;1.10;;;9.70;1.00;;;;;;5110027;27;20474;-75
2023/01/13 01:31:00;;;;;;;1.07;0.97;;;9.70;99.90;;;;;;5110757;27;20451;-78
2023/01/13 01:33:29;;;;;;;1.00;1.00;;;9.70;1.00;;;;;;5102257;27;20449;-74
2023/01/13 01:36:00;;;;;;;2.30;1.13;;;9.70;1.00;;;;;;5105853;27;20454;-78
2023/01/13 01:38:28;;;;;;;1.40;1.30;;;9.70;99.90;;;;;;5112979;27;20469;-75
2023/01/13 01:40:57;;;;;;;1.10;1.10;;;9.70;6.30;;;;;;5111495;27;20968;-75
2023/01/13 01:43:58;;;;;;;1.20;1.17;;;9.70;99.90;;;;;;5114988;27;20540;-78
2023/01/13 01:46:28;;;;;;;3.47;1.10;;;9.70;1.00;;;;;;5090997;27;20472;-75
2023/01/13 01:49:00;;;;;;;1.23;1.10;;;9.70;1.00;;;;;;5103050;27;20477;-80
2023/01/13 01:51:33;;;;;;;1.87;1.33;;;9.60;1.00;;;;;;5110262;27;21090;-77
2023/01/13 01:54:03;;;;;;;1.20;1.10;;;9.60;99.90;;;;;;5110623;27;20904;-75
2023/01/13 01:56:34;;;;;;;1.30;1.07;;;9.60;1.00;;;;;;5115374;27;20514;-75
2023/01/13 01:59:02;;;;;;;1.87;1.00;;;9.70;1.00;;;;;;5101981;28;20940;-75
2023/01/13 02:01:32;;;;;;;1.10;1.00;;;9.60;1.00;;;;;;5108025;27;20837;-74
2023/01/13 02:04:07;;;;;;;4.07;1.10;;;9.60;1.00;;;;;;5105934;27;20473;-75
2023/01/13 02:06:36;;;;;;;1.10;1.00;;;9.60;99.90;;;;;;5108501;28;20475;-80
2023/01/13 02:09:04;;;;;;;1.10;1.10;;;9.60;1.00;;;;;;5110661;28;21231;-75
2023/01/13 02:14:22;;;;;;;1.20;1.10;;;9.60;99.90;;;;;;5114041;28;21352;-75
2023/01/13 02:17:03;;;;;;;1.43;1.17;;;9.70;1.00;;;;;;5112829;28;20453;-75
2023/01/13 02:20:08;;;;;;;1.30;1.20;;;9.70;99.90;;;;;;5115245;27;20481;-74
2023/01/13 02:23:00;;;;;;;1.10;1.10;;;9.60;1.00;;;;;;5103945;27;20532;-78
2023/01/13 02:25:47;;;;;;;1.90;1.10;;;9.70;1.00;;;;;;5092583;27;20590;-75
2023/01/13 02:31:40;;;;;;;2.20;1.10;;;9.70;99.90;;;;;;5119367;27;20484;-75
2023/01/13 02:31:43;;;;;;;2.40;1.13;;;9.60;1.00;;;;;;5116502;27;20486;-75
2023/01/13 02:34:16;;;;;;;1.60;1.50;;;9.70;1.00;;;;;;5115084;27;20452;-76
2023/01/13 02:36:50;;;;;;;2.10;1.20;;;9.70;1.00;;;;;;5119558;27;20457;-74
2023/01/13 02:39:23;;;;;;;1.23;1.17;;;9.60;48.90;;;;;;5111683;27;21258;-76
2023/01/13 02:44:45;;;;;;;2.00;1.03;;;9.70;9.30;;;;;;5111247;27;20464;-75
2023/01/13 02:47:18;;;;;;;2.57;1.00;;;9.60;99.90;;;;;;5117476;27;20455;-75
2023/01/13 02:49:50;;;;;;;3.57;1.27;;;9.60;99.90;;;;;;5114905;27;20955;-80
2023/01/13 02:52:23;;;;;;;2.70;1.20;;;9.70;99.90;;;;;;5118966;27;21111;-75
2023/01/13 02:54:57;;;;;;;1.17;1.10;;;9.70;99.90;;;;;;5115314;27;20442;-76
2023/01/13 02:57:26;;;;;;;1.20;1.20;;;9.60;1.00;;;;;;5112786;27;20525;-76
2023/01/13 02:59:55;;;;;;;0.90;0.90;;;9.70;99.90;;;;;;5118029;27;20487;-74
2023/01/13 03:02:26;;;;;;;1.40;1.27;;;9.70;1.00;;;;;;5109219;27;20445;-80
2023/01/13 03:04:55;;;;;;;1.20;1.20;;;9.60;1.00;;;;;;5112185;27;20486;-75
2023/01/13 03:07:56;;;;;;;2.00;1.17;;;9.60;1.00;;;;;;5120914;27;20482;-80
2023/01/13 03:11:01;;;;;;;1.60;1.50;;;9.70;1.00;;;;;;5115767;27;20463;-79
2023/01/13 03:13:50;;;;;;;1.00;1.00;;;9.70;99.90;;;;;;5116409;27;20460;-74
2023/01/13 03:16:31;;;;;;;1.20;1.10;;;9.60;1.00;;;;;;5099383;27;20486;-76
2023/01/13 03:19:19;;;;;;;1.70;1.20;;;9.60;1.00;;;;;;5113423;27;20538;-75
2023/01/13 03:21:53;;;;;;;1.33;1.10;;;9.60;94.50;;;;;;5109580;27;20445;-77
2023/01/13 03:24:27;;;;;;;1.30;1.20;;;9.60;99.90;;;;;;5115218;27;20978;-77
2023/01/13 03:27:01;;;;;;;1.10;1.10;;;9.60;17.10;;;;;;5118308;27;21039;-75
2023/01/13 03:29:36;;;;;;;1.10;1.10;;;9.60;99.90;;;;;;5112631;27;20455;-74
2023/01/13 03:32:11;;;;;;;1.60;1.50;;;9.60;32.30;;;;;;5105423;27;22268;-74
2023/01/13 03:34:47;;;;;;;1.20;1.20;;;9.70;99.90;;;;;;5110512;27;20459;-74
2023/01/13 03:37:19;;;;;;;1.20;1.10;;;9.60;99.90;;;;;;5116610;27;20450;-77
2023/01/13 03:39:53;;;;;;;1.07;1.07;;;9.60;1.00;;;;;;5111877;27;21155;-75
2023/01/13 03:42:25;;;;;;;1.40;1.40;;;9.60;99.90;;;;;;5111181;27;20452;-74
2023/01/13 03:44:56;;;;;;;1.70;1.30;;;9.60;1.00;;;;;;5110767;27;20588;-76
2023/01/13 03:47:32;;;;;;;1.30;1.20;;;9.60;99.90;;;;;;5109615;27;20554;-73
2023/01/13 03:50:04;;;;;;;1.10;1.10;;;9.60;99.90;;;;;;5113729;27;20443;-76
2023/01/13 03:52:37;;;;;;;1.10;1.10;;;9.50;99.90;;;;;;5118944;27;20544;-75
2023/01/13 03:55:09;;;;;;;1.57;1.20;;;9.60;99.90;;;;;;5111855;27;21055;-78
2023/01/13 03:57:43;;;;;;;1.23;1.10;;;9.60;1.00;;;;;;5116967;27;20484;-75
2023/01/13 04:00:14;;;;;;;1.23;1.10;;;9.60;1.00;;;;;;5115653;27;20964;-74
2023/01/13 04:02:50;;;;;;;1.40;1.20;;;9.60;99.90;;;;;;5114837;27;20448;-74
2023/01/13 04:05:20;;;;;;;1.67;1.10;;;9.60;1.00;;;;;;5115844;27;20517;-74
2023/01/13 04:07:59;;;;;;;1.00;1.00;;;9.60;99.90;;;;;;5109528;27;20480;-75
2023/01/13 04:10:32;;;;;;;2.30;1.20;;;9.60;1.00;;;;;;5110726;27;20475;-79
2023/01/13 04:13:04;;;;;;;0.93;0.93;;;9.60;1.00;;;;;;5116563;27;20473;-74
2023/01/13 04:15:36;;;;;;;2.50;2.40;;;9.60;1.00;;;;;;5113405;27;20451;-73
2023/01/13 04:18:20;;;;;;;2.10;1.03;;;9.60;1.00;;;;;;5092478;27;20473;-75
2023/01/13 04:20:51;;;;;;;1.20;1.20;;;9.60;99.90;;;;;;5110509;27;20459;-74
2023/01/13 04:23:21;;;;;;;1.10;1.10;;;9.60;99.90;;;;;;5113625;27;20444;-75
2023/01/13 04:25:50;;;;;;;1.17;1.00;;;9.70;99.90;;;;;;5115399;27;20477;-74
2023/01/13 04:28:19;;;;;;;3.17;1.10;;;9.60;1.00;;;;;;5111968;27;20468;-74
2023/01/13 04:30:48;;;;;;;1.33;1.33;;;9.60;99.90;;;;;;5113274;27;20457;-73
2023/01/13 04:33:18;;;;;;;2.40;1.20;;;9.60;99.90;;;;;;5107001;27;20452;-76
2023/01/13 04:35:47;;;;;;;2.43;1.30;;;9.60;99.90;;;;;;5109255;27;20528;-76
2023/01/13 04:38:18;;;;;;;1.20;1.13;;;9.60;1.00;;;;;;5110701;27;20499;-74
2023/01/13 04:40:47;;;;;;;1.90;1.30;;;9.60;99.90;;;;;;5086559;28;20812;-75
2023/01/13 04:43:15;;;;;;;2.50;1.20;;;9.70;67.00;;;;;;5112090;27;20453;-74
2023/01/13 04:45:43;;;;;;;1.40;1.30;;;9.70;99.90;;;;;;5110809;27;20667;-73
2023/01/13 04:48:12;;;;;;;3.50;1.23;;;9.70;99.90;;;;;;5116299;27;20471;-73
2023/01/13 04:50:40;;;;;;;1.60;1.10;;;9.60;32.40;;;;;;5110578;27;20496;-74
2023/01/13 04:53:08;;;;;;;1.00;1.00;;;9.60;1.00;;;;;;5107491;27;21253;-74
2023/01/13 04:55:38;;;;;;;2.30;1.30;;;9.70;1.00;;;;;;5098593;27;20490;-77
2023/01/13 04:58:08;;;;;;;2.10;1.10;;;9.70;1.00;;;;;;5112469;27;20460;-73
2023/01/13 05:00:37;;;;;;;1.97;1.20;;;9.60;1.00;;;;;;5105292;27;20456;-77
2023/01/13 05:03:05;;;;;;;1.00;1.00;;;9.70;99.90;;;;;;5109177;27;20510;-79
2023/01/13 05:05:34;;;;;;;1.30;1.20;;;9.60;99.90;;;;;;5094956;27;20518;-76
2023/01/13 05:08:02;;;;;;;2.83;1.10;;;9.60;1.00;;;;;;5108065;27;20477;-74
2023/01/13 05:10:30;;;;;;;1.30;1.20;;;9.60;1.00;;;;;;5109742;27;20457;-74
2023/01/13 05:18:33;;;;;;;1.17;1.13;;;9.60;99.90;;;;;;5111049;27;21067;-75
2023/01/13 05:21:02;;;;;;;1.10;1.10;;;9.60;1.00;;;;;;5115056;27;20540;-75
2023/01/13 05:26:16;;;;;;;1.20;1.20;;;9.50;99.90;;;;;;5115893;27;20464;-76
2023/01/13 05:28:45;;;;;;;1.20;1.20;;;9.60;99.90;;;;;;5113800;27;20465;-75
2023/01/13 05:31:14;;;;;;;1.10;1.10;;;9.70;99.90;;;;;;5106744;27;20463;-81
2023/01/13 05:33:42;;;;;;;1.13;1.10;;;9.70;99.90;;;;;;5106530;27;20531;-76
2023/01/13 05:36:10;;;;;;;1.50;1.40;;;9.60;1.00;;;;;;5115562;27;20535;-75
2023/01/13 05:38:39;;;;;;;1.00;1.00;;;9.60;99.90;;;;;;5107792;27;21036;-74
2023/01/13 05:43:55;;;;;;;1.00;1.00;;;9.60;99.90;;;;;;5092153;27;21096;-75
2023/01/13 05:46:23;;;;;;;1.00;1.00;;;9.60;99.90;;;;;;5100353;27;20871;-74
2023/01/13 05:48:51;;;;;;;1.63;1.53;;;9.70;25.40;;;;;;5104658;28;20473;-75
2023/01/13 05:51:24;;;;;;;1.30;1.30;;;9.70;1.00;;;;;;5109521;27;21172;-76
2023/01/13 05:53:53;;;;;;;1.33;1.23;;;9.70;99.90;;;;;;5089970;27;20496;-74
2023/01/13 05:56:21;;;;;;;1.30;1.17;;;9.70;1.00;;;;;;5108666;27;20437;-78
2023/01/13 05:58:49;;;;;;;1.23;1.13;;;9.70;1.00;;;;;;5112014;27;20558;-77
2023/01/13 06:01:18;;;;;;;1.20;1.20;;;9.70;1.00;;;;;;5109616;27;20823;-77
2023/01/13 06:03:47;;;;;;;1.60;1.50;;;9.70;1.00;;;;;;5113583;27;20444;-77
2023/01/13 06:06:15;;;;;;;1.30;1.20;;;9.70;75.50;;;;;;5110707;28;20483;-78
2023/01/13 06:08:43;;;;;;;1.20;1.20;;;9.70;95.90;;;;;;5108822;28;20484;-77
2023/01/13 06:11:11;;;;;;;1.20;1.10;;;9.60;99.90;;;;;;5111337;28;20447;-78
2023/01/13 06:13:39;;;;;;;3.03;1.17;;;9.70;99.90;;;;;;5106543;28;20831;-79
2023/01/13 06:16:07;;;;;;;1.20;1.20;;;9.70;99.90;;;;;;5086038;28;20568;-78
2023/01/13 06:18:37;;;;;;;2.10;1.20;;;9.70;1.00;;;;;;5106031;28;20927;-78
2023/01/13 06:21:05;;;;;;;1.10;1.10;;;9.80;1.00;;;;;;5105869;28;20457;-76
2023/01/13 06:23:37;;;;;;;1.10;1.10;;;9.80;1.00;;;;;;5097474;28;20458;-77
2023/01/13 06:26:12;;;;;;;1.60;1.17;;;9.80;99.90;;;;;;5096599;28;21175;-79
2023/01/13 06:28:40;;;;;;;1.50;1.10;;;9.90;99.90;;;;;;5109090;28;20610;-78
2023/01/13 06:31:09;;;;;;;1.17;1.17;;;9.80;99.90;;;;;;5085100;28;21192;-77
2023/01/13 06:33:44;;;;;;;1.23;1.13;;;9.70;99.90;;;;;;5103320;28;20859;-77
2023/01/13 06:36:16;;;;;;;1.13;1.10;;;9.70;99.90;;;;;;5087969;28;20512;-77
2023/01/13 06:38:48;;;;;;;2.63;1.23;;;9.80;99.90;;;;;;5096552;28;21804;-77
2023/01/13 06:43:13;;;;;;;1.20;1.20;;;9.70;99.90;;;;;;5094947;28;21008;-78
2023/01/13 06:44:05;;;;;;;1.50;1.40;;;9.80;1.00;;;;;;5096521;28;20491;-76
2023/01/13 06:46:34;;;;;;;1.10;1.10;;;9.70;19.80;;;;;;5100733;28;20468;-78
2023/01/13 06:49:04;;;;;;;1.17;1.10;;;9.70;1.00;;;;;;5101248;28;20476;-79
2023/01/13 06:51:32;;;;;;;1.10;1.10;;;9.70;99.90;;;;;;5101984;28;20448;-78
2023/01/13 06:54:01;;;;;;;1.30;1.20;;;9.60;1.00;;;;;;5100267;28;20468;-76
2023/01/13 06:56:29;;;;;;;3.20;1.20;;;9.70;99.90;;;;;;5103279;28;20835;-77
2023/01/13 06:58:57;;;;;;;2.60;1.40;;;9.70;99.90;;;;;;5080329;28;21015;-77
2023/01/13 07:01:26;;;;;;;1.87;1.53;;;9.70;99.90;;;;;;5104832;28;20452;-76
2023/01/13 07:03:54;;;;;;;1.20;1.20;;;9.80;1.00;;;;;;5102494;28;20445;-77
2023/01/13 07:06:23;;;;;;;1.33;1.30;;;9.70;99.90;;;;;;5103751;27;20488;-78
2023/01/13 07:08:52;;;;;;;1.07;1.07;;;9.70;1.00;;;;;;5100006;27;20468;-77
2023/01/13 07:11:20;;;;;;;1.10;1.10;;;9.80;40.10;;;;;;5103368;27;20480;-78
2023/01/13 07:16:34;;;;;;;1.20;1.10;;;9.70;99.90;;;;;;5107306;27;21308;-77
2023/01/13 07:19:02;;;;;;;1.20;1.20;;;9.70;1.00;;;;;;5084470;27;21464;-78
2023/01/13 07:21:32;;;;;;;1.30;1.20;;;9.80;1.00;;;;;;5107852;27;20464;-77
2023/01/13 07:24:00;;;;;;;1.30;1.20;;;9.70;1.00;;;;;;5104340;27;20452;-77
2023/01/13 07:26:28;;;;;;;1.17;1.07;;;9.70;99.90;;;;;;5102581;27;21012;-78
2023/01/13 07:28:57;;;;;;;1.10;1.00;;;9.60;1.00;;;;;;5105822;27;20535;-77
2023/01/13 07:31:26;;;;;;;1.00;1.00;;;9.60;99.90;;;;;;5107947;27;20952;-78
2023/01/13 07:33:54;;;;;;;1.40;1.40;;;9.60;1.00;;;;;;5105893;27;20449;-78
2023/01/13 07:36:22;;;;;;;1.10;1.00;;;9.70;1.00;;;;;;5104826;27;20971;-78
2023/01/13 07:38:51;;;;;;;1.10;1.00;;;9.80;99.90;;;;;;5107983;27;21037;-78
2023/01/13 07:44:09;;;;;;;1.43;1.20;;;9.80;99.90;;;;;;5095371;27;20454;-78
2023/01/13 07:46:38;;;;;;;1.30;1.20;;;9.90;1.00;;;;;;5113433;27;20459;-78
2023/01/13 07:49:06;;;;;;;1.27;1.20;;;9.90;99.90;;;;;;5102599;27;20936;-77
2023/01/13 07:51:36;;;;;;;1.10;1.10;;;9.80;1.00;;;;;;5079276;27;20459;-77
2023/01/13 07:54:07;;;;;;;1.30;1.20;;;9.90;1.00;;;;;;5105962;27;20987;-79
2023/01/13 07:56:35;;;;;;;1.10;1.10;;;9.80;1.00;;;;;;5116684;27;20507;-79
2023/01/13 07:59:03;;;;;;;1.63;1.20;;;9.80;99.90;;;;;;5108600;27;20472;-78
2023/01/13 08:01:32;;;;;;;1.20;1.20;;;9.80;30.60;;;;;;5113438;27;20451;-77
2023/01/13 08:04:00;;;;;;;1.80;1.20;;;9.80;99.90;;;;;;5112325;27;20458;-77
2023/01/13 08:06:28;;;;;;;1.20;1.20;;;9.80;30.60;;;;;;5083790;27;20494;-77
2023/01/13 08:08:56;;;;;;;1.33;1.33;;;9.80;30.80;;;;;;5099302;27;20498;-77
2023/01/13 08:11:26;;;;;;;1.33;1.30;;;9.80;99.90;;;;;;5106905;27;20540;-77
2023/01/13 08:13:56;;;;;;;1.23;1.23;;;9.90;3.90;;;;;;5110008;27;20445;-77
2023/01/13 08:16:24;;;;;;;1.17;1.17;;;9.90;99.90;;;;;;5101599;27;20494;-78
2023/01/13 08:18:52;;;;;;;1.77;1.20;;;10.00;99.90;;;;;;5106621;27;20469;-77
2023/01/13 08:21:21;;;;;;;1.23;1.20;;;10.10;1.00;;;;;;5094934;27;20559;-78
2023/01/13 08:23:49;;;;;;;1.20;1.20;;;10.10;1.00;;;;;;5100597;27;20515;-77
2023/01/13 08:26:18;;;;;;;1.40;1.30;;;10.10;1.00;;;;;;5105078;27;20464;-78
2023/01/13 08:28:48;;;;;;;1.40;1.40;;;10.10;1.00;;;;;;5105937;27;20545;-76
2023/01/13 08:31:18;;;;;;;1.30;1.30;;;10.10;1.00;;;;;;5101870;27;20488;-77
2023/01/13 08:33:46;;;;;;;1.57;1.47;;;10.00;99.90;;;;;;5101525;27;20443;-78
2023/01/13 08:36:17;;;;;;;1.53;1.40;;;9.80;1.00;;;;;;5100453;27;20448;-77
2023/01/13 08:38:45;;;;;;;1.40;1.40;;;9.80;1.00;;;;;;5104153;27;20472;-78
2023/01/13 08:41:53;;;;;;;1.50;1.40;;;9.80;1.00;;;;;;5102192;27;20457;-79
2023/01/13 08:44:06;;;;;;;2.00;1.83;;;9.90;1.00;;;;;;5104631;27;20471;-78
2023/01/13 08:46:34;;;;;;;1.93;1.83;;;9.70;1.00;;;;;;5098427;27;20462;-78
2023/01/13 08:49:02;;;;;;;1.53;1.53;;;9.70;1.00;;;;;;5100276;27;20486;-77
2023/01/13 08:51:31;;;;;;;1.70;1.60;;;9.80;1.00;;;;;;5104035;27;21134;-78
2023/01/13 08:53:59;;;;;;;2.20;2.10;;;9.80;1.00;;;;;;5115130;27;20440;-78
2023/01/13 08:56:27;;;;;;;1.77;1.50;;;9.80;1.00;;;;;;5108469;27;20445;-78
2023/01/13 08:58:57;;;;;;;1.90;1.80;;;9.70;1.00;;;;;;5103640;27;20488;-78
2023/01/13 09:01:28;;;;;;;1.80;1.70;;;9.70;1.00;;;;;;5099745;27;20443;-78
2023/01/13 09:03:56;;;;;;;1.90;1.80;;;9.80;1.00;;;;;;5096782;27;20480;-77
2023/01/13 09:06:24;;;;;;;2.00;1.90;;;9.60;1.00;;;;;;5100688;27;20455;-78
2023/01/13 09:08:53;;;;;;;1.67;1.67;;;9.70;1.00;;;;;;5100413;27;20475;-78
2023/01/13 09:14:19;;;;;;;1.80;1.70;;;9.70;1.00;;;;;;5101114;27;21217;-75
2023/01/13 09:16:48;;;;;;;1.70;1.70;;;9.60;1.00;;;;;;5101548;27;20688;-76
2023/01/13 09:19:16;;;;;;;2.27;2.10;;;9.80;1.00;;;;;;5102056;27;21012;-77
2023/01/13 09:21:44;;;;;;;1.90;1.80;;;9.80;1.00;;;;;;5101662;27;20879;-78
2023/01/13 09:24:13;;;;;;;1.63;1.53;;;9.70;1.00;;;;;;5100766;27;20453;-79
2023/01/13 09:26:41;;;;;;;1.50;1.50;;;9.70;1.00;;;;;;5103248;27;20466;-79
2023/01/13 09:29:09;;;;;;;1.33;1.33;;;9.60;99.90;;;;;;5102240;27;20473;-79
2023/01/13 09:31:38;;;;;;;1.30;1.30;;;9.60;99.90;;;;;;5102453;27;21012;-78
2023/01/13 09:36:56;;;;;;;1.40;1.40;;;9.70;99.90;;;;;;5099197;27;20454;-77
2023/01/13 09:39:24;;;;;;;1.60;1.50;;;9.70;1.00;;;;;;5102737;27;20991;-78
2023/01/13 09:44:48;;;;;;;1.70;1.40;;;9.60;1.00;;;;;;5104200;27;20442;-78
2023/01/13 09:47:24;;;;;;;1.50;1.50;;;9.60;99.90;;;;;;5101933;27;20980;-78
2023/01/13 09:49:58;;;;;;;1.40;1.40;;;9.70;99.90;;;;;;5107188;27;20546;-77
2023/01/13 09:52:28;;;;;;;1.70;1.70;;;9.60;1.00;;;;;;5099796;27;20447;-79
2023/01/13 09:55:02;;;;;;;1.40;1.40;;;9.60;99.90;;;;;;5102278;27;20454;-78
2023/01/13 09:57:35;;;;;;;1.47;1.47;;;9.60;99.90;;;;;;5111356;27;20690;-79
2023/01/13 10:00:10;;;;;;;1.40;1.40;;;9.50;99.90;;;;;;5118335;27;20460;-78
2023/01/13 10:03:00;;;;;;;1.40;1.40;;;9.50;99.90;;;;;;5115609;27;20461;-78
2023/01/13 10:05:36;;;;;;;1.50;1.50;;;9.50;99.90;;;;;;5114039;27;20445;-78
2023/01/13 10:08:11;;;;;;;1.60;1.50;;;9.50;99.90;;;;;;5078929;28;21266;-78
2023/01/13 10:10:44;;;;;;;1.43;1.43;;;9.50;99.90;;;;;;5093694;28;20453;-77
2023/01/13 10:13:18;;;;;;;1.20;1.20;;;9.50;99.90;;;;;;5112240;28;20445;-77
2023/01/13 10:15:59;;;;;;;1.30;1.30;;;9.50;70.50;;;;;;5109797;28;20458;-78
2023/01/13 10:18:43;;;;;;;1.20;1.20;;;9.40;99.90;;;;;;5109591;28;20472;-79
2023/01/13 10:21:27;;;;;;;2.30;1.60;;;9.70;1.00;;;;;;5074285;28;20949;-79
2023/01/13 10:24:02;;;;;;;1.60;1.50;;;10.30;1.00;;;;;;5099934;28;20454;-77
2023/01/13 10:26:47;;;;;;;1.73;1.63;;;10.50;99.90;;;;;;5079351;28;20566;-79
2023/01/13 10:29:20;;;;;;;1.50;1.50;;;11.30;1.00;;;;;;5104057;28;20494;-78
2023/01/13 10:31:49;;;;;;;1.60;1.60;;;12.10;1.00;;;;;;5098141;28;20458;-78
2023/01/13 10:34:17;;;;;;;1.30;1.30;;;12.10;99.90;;;;;;5100361;28;20456;-79
2023/01/13 10:36:59;;;;;;;1.70;1.40;;;11.90;99.90;;;;;;5101360;28;20540;-77
2023/01/13 10:39:28;;;;;;;1.40;1.40;;;11.60;99.90;;;;;;5101659;27;20474;-78
2023/01/13 10:42:03;;;;;;;1.30;1.30;;;11.30;32.70;;;;;;5103073;27;20468;-78
2023/01/13 10:44:32;;;;;;;1.30;1.30;;;11.10;1.00;;;;;;5107713;27;20975;-78
2023/01/13 10:47:00;;;;;;;1.20;1.20;;;10.70;1.00;;;;;;5105154;27;20460;-78
2023/01/13 10:49:35;;;;;;;1.60;1.50;;;10.40;99.90;;;;;;5119364;27;20472;-78
2023/01/13 10:52:25;;;;;;;1.30;1.30;;;10.30;99.90;;;;;;5094546;27;20446;-77
2023/01/13 10:54:54;;;;;;;1.20;1.20;;;10.20;1.00;;;;;;5102240;27;20449;-78
2023/01/13 10:57:25;;;;;;;1.30;1.30;;;10.10;1.00;;;;;;5107261;27;20461;-77
2023/01/13 10:59:54;;;;;;;1.20;1.20;;;10.00;99.90;;;;;;5104553;27;20465;-78
2023/01/13 11:02:28;;;;;;;1.30;1.30;;;9.80;99.90;;;;;;5104440;27;20525;-78
2023/01/13 11:05:18;;;;;;;1.30;1.30;;;9.70;1.00;;;;;;5105594;27;20500;-78
2023/01/13 11:07:51;;;;;;;1.13;1.13;;;9.60;1.00;;;;;;5107479;27;20480;-78
2023/01/13 11:10:22;;;;;;;1.67;1.17;;;9.50;99.90;;;;;;5103505;27;20468;-78
2023/01/13 11:12:58;;;;;;;1.33;1.10;;;9.60;1.00;;;;;;5104617;27;20452;-78
2023/01/13 11:15:38;;;;;;;1.20;1.17;;;9.50;1.00;;;;;;5099888;27;20464;-79
2023/01/13 11:18:15;;;;;;;1.10;1.10;;;9.30;1.00;;;;;;5095534;27;21099;-77
2023/01/13 11:20:47;;;;;;;1.00;1.00;;;9.30;99.90;;;;;;5104109;27;20448;-78
2023/01/13 11:23:24;;;;;;;1.50;1.20;;;9.40;99.90;;;;;;5112729;27;20460;-78
2023/01/13 11:25:56;;;;;;;1.33;1.23;;;9.30;99.90;;;;;;5104619;27;20575;-78
2023/01/13 11:28:42;;;;;;;1.30;1.30;;;9.30;99.90;;;;;;5104087;27;20476;-78
2023/01/13 11:31:17;;;;;;;1.20;1.20;;;9.30;99.90;;;;;;5105668;27;20541;-79
2023/01/13 11:33:51;;;;;;;1.00;1.00;;;9.30;15.70;;;;;;5094134;27;20455;-78
2023/01/13 11:36:24;;;;;;;1.47;1.20;;;9.30;1.00;;;;;;5115399;27;20488;-77
2023/01/13 11:38:56;;;;;;;1.40;1.30;;;9.10;99.90;;;;;;5110808;27;20483;-79
2023/01/13 11:41:31;;;;;;;1.17;1.10;;;9.10;1.00;;;;;;5098804;27;20448;-78
2023/01/13 11:44:08;;;;;;;0.90;0.90;;;9.10;99.90;;;;;;5100383;27;20448;-77
2023/01/13 11:46:36;;;;;;;1.53;1.20;;;9.20;1.00;;;;;;5099823;27;21260;-78
2023/01/13 11:49:05;;;;;;;1.33;1.00;;;9.10;1.00;;;;;;5115279;27;20885;-78
2023/01/13 11:51:38;;;;;;;1.40;1.30;;;9.10;99.90;;;;;;5102757;27;20475;-79
2023/01/13 11:54:24;;;;;;;1.30;1.20;;;9.10;1.00;;;;;;5108931;27;20571;-77
2023/01/13 11:57:17;;;;;;;1.00;1.00;;;9.10;8.40;;;;;;5115628;27;20464;-78
2023/01/13 12:00:02;;;;;;;1.10;1.10;;;9.20;1.00;;;;;;5115649;27;20451;-75
2023/01/13 12:02:47;;;;;;;1.43;1.30;;;9.30;99.90;;;;;;5111097;27;20457;-78
2023/01/13 12:05:23;;;;;;;1.20;1.20;;;9.20;1.00;;;;;;5112350;27;20484;-78
2023/01/13 12:08:01;;;;;;;1.23;1.13;;;9.20;1.00;;;;;;5109175;27;20571;-78
2023/01/13 12:10:42;;;;;;;1.30;1.20;;;9.30;1.00;;;;;;5100916;27;20572;-77
2023/01/13 12:13:20;;;;;;;1.07;1.07;;;9.10;1.00;;;;;;5108716;27;20454;-78
2023/01/13 12:16:09;;;;;;;1.00;1.00;;;9.20;99.90;;;;;;5097907;27;20444;-78
2023/01/13 12:19:03;;;;;;;1.20;1.20;;;9.30;99.90;;;;;;5102416;27;20501;-80
2023/01/13 12:21:36;;;;;;;2.30;1.20;;;9.40;1.00;;;;;;5090980;27;20475;-78
2023/01/13 12:24:17;;;;;;;1.33;1.23;;;9.50;36.90;;;;;;5112843;27;20468;-78
2023/01/13 12:26:54;;;;;;;1.40;1.33;;;9.60;99.90;;;;;;5110788;27;20952;-79
2023/01/13 12:29:30;;;;;;;1.30;1.30;;;9.80;51.50;;;;;;5108327;27;20606;-78
2023/01/13 12:32:01;;;;;;;2.37;1.40;;;10.00;99.90;;;;;;5108742;27;20455;-79
2023/01/13 12:34:41;;;;;;;1.67;1.60;;;10.30;99.90;;;;;;5107651;27;20451;-79
2023/01/13 12:37:14;;;;;;;3.20;1.47;;;10.40;99.90;;;;;;5095925;27;20445;-78
2023/01/13 12:39:56;;;;;;;1.67;1.30;;;10.60;99.90;;;;;;5101530;27;20465;-78
2023/01/13 12:45:24;;;;;;;2.27;1.40;;;10.70;99.90;;;;;;5104962;27;20458;-78
2023/01/13 12:47:52;;;;;;;5.13;2.47;;;10.70;32.00;;;;;;5111274;27;21026;-78
2023/01/13 12:50:42;;;;;;;3.07;1.90;;;10.70;1.00;;;;;;5091730;27;21075;-78
2023/01/13 12:53:35;;;;;;;3.17;1.30;;;10.80;1.00;;;;;;5096268;27;20492;-78
2023/01/13 12:56:30;;;;;;;3.37;1.57;;;10.80;1.00;;;;;;5106849;27;20508;-78
2023/01/13 12:59:48;;;;;;;1.93;1.60;;;10.80;1.00;;;;;;5105047;27;20834;-79
2023/01/13 13:03:06;;;;;;;1.40;1.30;;;10.80;1.00;;;;;;5110592;27;20468;-78
2023/01/13 13:05:44;;;;;;;1.50;1.40;;;10.90;1.00;;;;;;5107780;27;20460;-76
2023/01/13 13:08:20;;;;;;;2.77;1.30;;;10.90;1.00;;;;;;5113785;27;20465;-79
2023/01/13 13:11:01;;;;;;;4.50;1.17;;;10.90;1.00;;;;;;5097396;27;20923;-78
2023/01/13 13:13:44;;;;;;;1.43;1.33;;;11.00;1.00;;;;;;5101364;27;20474;-78
2023/01/13 13:16:45;;;;;;;2.03;1.33;;;11.10;1.00;;;;;;5089370;27;22597;-79
2023/01/13 13:19:43;;;;;;;1.57;1.30;;;11.10;1.00;;;;;;5097946;27;20566;-78
2023/01/13 13:22:36;;;;;;;2.37;1.60;;;11.10;1.00;;;;;;5104297;27;21012;-78
2023/01/13 13:25:22;;;;;;;2.07;1.40;;;11.10;1.00;;;;;;5100605;27;20518;-78
2023/01/13 13:28:13;;;;;;;2.27;1.33;;;11.10;1.00;;;;;;5082849;28;20485;-79
2023/01/13 13:31:03;;;;;;;1.43;1.30;;;11.00;1.00;;;;;;5089345;27;20564;-78
2023/01/13 13:33:47;;;;;;;3.87;1.30;;;11.00;1.00;;;;;;5103122;27;20892;-77
2023/01/13 13:36:49;;;;;;;4.10;1.30;;;11.00;1.00;;;;;;5101176;27;20822;-78
2023/01/13 13:48:23;;;;;;;3.20;1.57;;;11.00;1.00;;;;;;5083954;27;20489;-78
2023/01/13 13:50:56;;;;;;;4.30;1.60;;;11.10;1.00;;;;;;5091758;28;20497;-78
2023/01/13 13:53:31;;;;;;;1.40;1.30;;;11.20;1.00;;;;;;5101312;27;20452;-77
2023/01/13 13:56:01;;;;;;;1.30;1.20;;;11.30;1.00;;;;;;5113371;27;20437;-79
2023/01/13 13:58:35;;;;;;;2.03;1.93;;;11.00;1.00;;;;;;5109323;27;20535;-78
2023/01/13 14:01:04;;;;;;;5.50;1.40;;;10.90;1.00;;;;;;5113324;27;20497;-78
2023/01/13 14:03:35;;;;;;;4.43;1.60;;;10.80;1.00;;;;;;5105921;27;20895;-77
2023/01/13 14:06:20;;;;;;;1.20;1.10;;;10.70;1.00;;;;;;5108046;27;20452;-78
2023/01/13 14:08:51;;;;;;;1.37;1.10;;;10.60;1.00;;;;;;5112441;27;20473;-79
2023/01/13 14:11:26;;;;;;;2.33;1.43;;;10.50;1.00;;;;;;5107306;28;20478;-79
2023/01/13 14:14:05;;;;;;;2.27;2.07;;;10.40;67.30;;;;;;5108989;28;20462;-79
2023/01/13 14:16:34;;;;;;;2.80;2.23;;;10.30;99.90;;;;;;5114554;28;20429;-78